createdAt,value
2017-07-26T00:00:31.622Z,1002.76
2017-07-26T00:01:12.145Z,1002.76
2017-07-26T00:01:52.685Z,1002.75
2017-07-26T00:02:33.205Z,1002.76
2017-07-26T00:03:13.726Z,1002.75
2017-07-26T00:03:54.271Z,1002.81
2017-07-26T00:04:34.796Z,1002.78
2017-07-26T00:05:15.335Z,1002.79
2017-07-26T00:05:55.877Z,1002.76
2017-07-26T00:06:36.416Z,1002.77
2017-07-26T00:07:19.941Z,1002.79
2017-07-26T00:08:00.481Z,1002.75
2017-07-26T00:08:41.013Z,1002.78
2017-07-26T00:09:21.535Z,1002.8
2017-07-26T00:10:02.055Z,1002.79
2017-07-26T00:10:42.587Z,1002.77
2017-07-26T00:11:23.117Z,1002.78
2017-07-26T00:12:03.655Z,1002.79
2017-07-26T00:12:44.184Z,1002.75
2017-07-26T00:13:24.718Z,1002.82
2017-07-26T00:14:05.253Z,1002.76
2017-07-26T00:14:45.789Z,1002.76
2017-07-26T00:15:26.322Z,1002.79
2017-07-26T00:16:06.859Z,1002.79
2017-07-26T00:16:47.363Z,1002.79
2017-07-26T00:17:27.892Z,1002.77
2017-07-26T00:18:08.424Z,1002.81
2017-07-26T00:18:48.955Z,1002.78
2017-07-26T00:19:29.485Z,1002.83
2017-07-26T00:20:10.006Z,1002.83
2017-07-26T00:20:50.525Z,1002.82
2017-07-26T00:21:31.066Z,1002.83
2017-07-26T00:22:11.602Z,1002.86
2017-07-26T00:22:52.136Z,1002.88
2017-07-26T00:23:32.675Z,1002.85
2017-07-26T00:24:13.199Z,1002.82
2017-07-26T00:24:53.728Z,1002.84
2017-07-26T00:25:34.259Z,1002.87
2017-07-26T00:26:14.790Z,1002.85
2017-07-26T00:26:55.314Z,1002.85
2017-07-26T00:27:35.833Z,1002.84
2017-07-26T00:28:16.374Z,1002.84
2017-07-26T00:28:56.890Z,1002.88
2017-07-26T00:29:37.413Z,1002.88
2017-07-26T00:30:17.936Z,1002.85
2017-07-26T00:30:58.470Z,1002.86
2017-07-26T00:31:38.994Z,1002.89
2017-07-26T00:32:19.526Z,1002.85
2017-07-26T00:33:00.059Z,1002.86
2017-07-26T00:33:40.595Z,1002.89
2017-07-26T00:34:21.134Z,1002.9
2017-07-26T00:35:01.665Z,1002.87
2017-07-26T00:35:42.198Z,1002.88
2017-07-26T00:36:22.741Z,1002.88
2017-07-26T00:37:03.273Z,1002.85
2017-07-26T00:37:43.817Z,1002.89
2017-07-26T00:38:24.329Z,1002.87
2017-07-26T00:39:04.861Z,1002.87
2017-07-26T00:39:45.378Z,1002.92
2017-07-26T00:40:25.910Z,1002.93
2017-07-26T00:41:06.465Z,1002.91
2017-07-26T00:41:46.997Z,1002.91
2017-07-26T00:42:27.539Z,1002.92
2017-07-26T00:43:08.067Z,1002.95
2017-07-26T00:43:48.591Z,1002.9
2017-07-26T00:44:29.102Z,1002.94
2017-07-26T00:45:09.627Z,1002.94
2017-07-26T00:45:50.138Z,1002.95
2017-07-26T00:46:30.681Z,1002.94
2017-07-26T00:47:11.216Z,1002.94
2017-07-26T00:47:51.752Z,1002.93
2017-07-26T00:48:32.286Z,1002.93
2017-07-26T00:49:12.828Z,1002.95
2017-07-26T00:49:53.372Z,1002.95
2017-07-26T00:50:33.903Z,1002.96
2017-07-26T00:51:14.436Z,1002.96
2017-07-26T00:51:54.964Z,1002.92
2017-07-26T00:52:35.504Z,1002.96
2017-07-26T00:53:16.025Z,1002.98
2017-07-26T00:53:56.565Z,1002.99
2017-07-26T00:54:37.087Z,1002.98
2017-07-26T00:55:17.629Z,1002.97
2017-07-26T00:55:58.189Z,1002.97
2017-07-26T00:56:38.701Z,1002.97
2017-07-26T00:57:19.237Z,1002.96
2017-07-26T00:57:59.765Z,1002.93
2017-07-26T00:58:40.298Z,1002.92
2017-07-26T00:59:20.807Z,1002.93
2017-07-26T01:00:01.335Z,1002.98
2017-07-26T01:00:41.857Z,1002.94
2017-07-26T01:01:22.388Z,1002.89
2017-07-26T01:02:02.910Z,1002.92
2017-07-26T01:02:43.434Z,1002.92
2017-07-26T01:03:23.961Z,1002.93
2017-07-26T01:04:04.491Z,1002.94
2017-07-26T01:04:45.018Z,1002.93
2017-07-26T01:05:25.557Z,1002.92
2017-07-26T01:06:06.100Z,1002.9
2017-07-26T01:06:46.616Z,1002.89
2017-07-26T01:07:27.154Z,1002.88
2017-07-26T01:08:07.684Z,1002.91
2017-07-26T01:08:48.219Z,1002.89
2017-07-26T01:09:28.742Z,1002.91
2017-07-26T01:10:09.267Z,1002.89
2017-07-26T01:10:49.800Z,1002.94
2017-07-26T01:11:30.335Z,1002.89
2017-07-26T01:12:10.880Z,1002.9
2017-07-26T01:12:51.448Z,1002.89
2017-07-26T01:13:31.987Z,1002.89
2017-07-26T01:14:12.527Z,1002.87
2017-07-26T01:14:53.068Z,1002.9
2017-07-26T01:15:33.608Z,1002.91
2017-07-26T01:16:14.132Z,1002.95
2017-07-26T01:16:54.651Z,1002.94
2017-07-26T01:17:35.185Z,1002.92
2017-07-26T01:18:15.719Z,1002.99
2017-07-26T01:18:56.230Z,1002.94
2017-07-26T01:19:36.739Z,1002.95
2017-07-26T01:20:17.279Z,1002.93
2017-07-26T01:20:57.818Z,1002.96
2017-07-26T01:21:38.351Z,1002.93
2017-07-26T01:22:18.875Z,1002.91
2017-07-26T01:22:59.411Z,1002.93
2017-07-26T01:23:39.935Z,1002.92
2017-07-26T01:24:20.473Z,1002.94
2017-07-26T01:25:01.010Z,1002.96
2017-07-26T01:25:41.550Z,1002.95
2017-07-26T01:26:22.073Z,1002.93
2017-07-26T01:27:02.586Z,1002.94
2017-07-26T01:27:43.135Z,1002.93
2017-07-26T01:28:23.672Z,1002.92
2017-07-26T01:29:04.182Z,1002.95
2017-07-26T01:29:44.714Z,1002.94
2017-07-26T01:30:25.239Z,1002.95
2017-07-26T01:31:05.774Z,1002.92
2017-07-26T01:31:46.312Z,1002.89
2017-07-26T01:32:26.841Z,1002.95
2017-07-26T01:33:07.365Z,1002.99
2017-07-26T01:33:47.910Z,1002.98
2017-07-26T01:34:28.443Z,1002.91
2017-07-26T01:35:08.977Z,1002.88
2017-07-26T01:35:49.507Z,1002.9
2017-07-26T01:36:30.030Z,1002.92
2017-07-26T01:37:10.567Z,1002.91
2017-07-26T01:37:51.091Z,1002.88
2017-07-26T01:38:31.629Z,1002.88
2017-07-26T01:39:12.162Z,1002.85
2017-07-26T01:39:52.687Z,1002.85
2017-07-26T01:40:33.216Z,1002.88
2017-07-26T01:41:13.743Z,1002.88
2017-07-26T01:41:54.276Z,1002.88
2017-07-26T01:42:34.791Z,1002.87
2017-07-26T01:43:15.302Z,1002.88
2017-07-26T01:43:55.832Z,1002.86
2017-07-26T01:44:36.373Z,1002.89
2017-07-26T01:45:16.915Z,1002.88
2017-07-26T01:45:57.451Z,1002.89
2017-07-26T01:46:37.980Z,1002.91
2017-07-26T01:47:18.512Z,1002.86
2017-07-26T01:47:59.048Z,1002.85
2017-07-26T01:48:39.584Z,1002.93
2017-07-26T01:49:20.127Z,1002.91
2017-07-26T01:50:00.667Z,1002.89
2017-07-26T01:50:41.198Z,1002.9
2017-07-26T01:51:21.742Z,1002.91
2017-07-26T01:52:02.261Z,1002.91
2017-07-26T01:52:42.792Z,1002.91
2017-07-26T01:53:23.330Z,1002.88
2017-07-26T01:54:03.859Z,1002.9
2017-07-26T01:54:44.379Z,1002.95
2017-07-26T01:55:24.914Z,1002.94
2017-07-26T01:56:05.451Z,1002.9
2017-07-26T01:56:45.982Z,1002.91
2017-07-26T01:57:26.504Z,1002.93
2017-07-26T01:58:07.027Z,1002.95
2017-07-26T01:58:47.567Z,1002.94
2017-07-26T01:59:28.100Z,1002.93
2017-07-26T02:00:08.637Z,1002.96
2017-07-26T02:00:49.170Z,1002.93
2017-07-26T02:01:29.692Z,1002.92
2017-07-26T02:02:10.213Z,1002.92
2017-07-26T02:02:50.765Z,1002.91
2017-07-26T02:03:31.311Z,1002.93
2017-07-26T02:04:11.834Z,1002.93
2017-07-26T02:04:52.351Z,1002.93
2017-07-26T02:05:32.881Z,1002.98
2017-07-26T02:06:13.388Z,1002.97
2017-07-26T02:06:53.919Z,1003.01
2017-07-26T02:07:34.440Z,1002.99
2017-07-26T02:08:14.971Z,1003.01
2017-07-26T02:08:55.509Z,1002.98
2017-07-26T02:09:36.045Z,1002.93
2017-07-26T02:10:16.562Z,1002.97
2017-07-26T02:10:57.083Z,1002.96
2017-07-26T02:11:37.613Z,1002.97
2017-07-26T02:12:18.152Z,1002.95
2017-07-26T02:12:58.818Z,1002.95
2017-07-26T02:13:39.352Z,1002.96
2017-07-26T02:14:19.895Z,1002.93
2017-07-26T02:15:00.438Z,1002.91
2017-07-26T02:15:40.955Z,1002.89
2017-07-26T02:16:21.497Z,1002.89
2017-07-26T02:17:02.031Z,1002.9
2017-07-26T02:17:42.572Z,1002.89
2017-07-26T02:18:23.112Z,1002.91
2017-07-26T02:19:03.657Z,1002.87
2017-07-26T02:19:44.170Z,1002.85
2017-07-26T02:20:24.715Z,1002.88
2017-07-26T02:21:05.233Z,1002.84
2017-07-26T02:21:45.774Z,1002.84
2017-07-26T02:22:26.294Z,1002.86
2017-07-26T02:23:06.808Z,1002.83
2017-07-26T02:23:47.348Z,1002.87
2017-07-26T02:24:27.883Z,1002.83
2017-07-26T02:25:08.426Z,1002.84
2017-07-26T02:25:48.961Z,1002.84
2017-07-26T02:26:29.476Z,1002.84
2017-07-26T02:27:10.000Z,1002.89
2017-07-26T02:27:50.534Z,1002.87
2017-07-26T02:28:31.064Z,1002.86
2017-07-26T02:29:11.602Z,1002.88
2017-07-26T02:29:52.128Z,1002.88
2017-07-26T02:30:32.651Z,1002.92
2017-07-26T02:31:13.179Z,1002.88
2017-07-26T02:31:53.708Z,1002.83
2017-07-26T02:32:34.241Z,1002.84
2017-07-26T02:33:14.759Z,1002.85
2017-07-26T02:33:55.283Z,1002.87
2017-07-26T02:34:35.835Z,1002.87
2017-07-26T02:35:16.371Z,1002.86
2017-07-26T02:35:56.920Z,1002.88
2017-07-26T02:36:37.464Z,1002.9
2017-07-26T02:37:18.009Z,1002.88
2017-07-26T02:37:58.554Z,1002.9
2017-07-26T02:38:39.086Z,1002.92
2017-07-26T02:39:19.627Z,1002.91
2017-07-26T02:40:00.160Z,1002.89
2017-07-26T02:40:40.692Z,1002.9
2017-07-26T02:41:21.233Z,1002.9
2017-07-26T02:42:01.767Z,1002.89
2017-07-26T02:42:42.309Z,1002.9
2017-07-26T02:43:22.836Z,1002.92
2017-07-26T02:44:03.392Z,1002.95
2017-07-26T02:44:43.904Z,1002.92
2017-07-26T02:45:24.437Z,1002.95
2017-07-26T02:46:04.978Z,1002.9
2017-07-26T02:46:45.504Z,1002.96
2017-07-26T02:47:26.043Z,1002.94
2017-07-26T02:48:06.571Z,1002.94
2017-07-26T02:48:47.106Z,1002.95
2017-07-26T02:49:27.647Z,1002.95
2017-07-26T02:50:08.186Z,1002.92
2017-07-26T02:50:48.724Z,1002.94
2017-07-26T02:51:29.243Z,1002.92
2017-07-26T02:52:09.775Z,1002.93
2017-07-26T02:52:50.319Z,1002.9
2017-07-26T02:53:30.849Z,1002.9
2017-07-26T02:54:11.400Z,1002.91
2017-07-26T02:54:51.938Z,1002.91
2017-07-26T02:55:32.489Z,1002.9
2017-07-26T02:56:13.000Z,1002.9
2017-07-26T02:56:53.543Z,1002.88
2017-07-26T02:57:34.066Z,1002.87
2017-07-26T02:58:14.590Z,1002.87
2017-07-26T02:58:55.142Z,1002.87
2017-07-26T02:59:35.674Z,1002.85
2017-07-26T03:00:16.200Z,1002.87
2017-07-26T03:00:56.712Z,1002.86
2017-07-26T03:01:37.254Z,1002.84
2017-07-26T03:02:17.814Z,1002.89
2017-07-26T03:02:58.340Z,1002.84
2017-07-26T03:03:38.845Z,1002.88
2017-07-26T03:04:19.378Z,1002.87
2017-07-26T03:04:59.909Z,1002.85
2017-07-26T03:05:40.445Z,1002.87
2017-07-26T03:06:20.972Z,1002.87
2017-07-26T03:07:01.507Z,1002.88
2017-07-26T03:07:42.043Z,1002.81
2017-07-26T03:08:22.571Z,1002.81
2017-07-26T03:09:03.108Z,1002.79
2017-07-26T03:09:43.633Z,1002.8
2017-07-26T03:10:24.163Z,1002.81
2017-07-26T03:11:04.695Z,1002.82
2017-07-26T03:11:45.215Z,1002.82
2017-07-26T03:12:25.761Z,1002.78
2017-07-26T03:13:06.304Z,1002.8
2017-07-26T03:13:46.845Z,1002.75
2017-07-26T03:14:27.379Z,1002.73
2017-07-26T03:15:07.910Z,1002.74
2017-07-26T03:15:48.436Z,1002.72
2017-07-26T03:16:28.966Z,1002.73
2017-07-26T03:17:09.500Z,1002.74
2017-07-26T03:17:50.039Z,1002.72
2017-07-26T03:18:30.582Z,1002.73
2017-07-26T03:19:11.116Z,1002.71
2017-07-26T03:19:51.641Z,1002.69
2017-07-26T03:20:32.179Z,1002.67
2017-07-26T03:21:12.711Z,1002.69
2017-07-26T03:21:53.264Z,1002.75
2017-07-26T03:22:33.800Z,1002.74
2017-07-26T03:23:14.334Z,1002.7
2017-07-26T03:23:54.845Z,1002.76
2017-07-26T03:24:35.367Z,1002.7
2017-07-26T03:25:15.908Z,1002.73
2017-07-26T03:25:56.424Z,1002.73
2017-07-26T03:26:36.964Z,1002.72
2017-07-26T03:27:17.494Z,1002.74
2017-07-26T03:27:58.031Z,1002.73
2017-07-26T03:28:38.568Z,1002.71
2017-07-26T03:29:19.100Z,1002.72
2017-07-26T03:29:59.628Z,1002.72
2017-07-26T03:30:40.205Z,1002.74
2017-07-26T03:31:20.743Z,1002.77
2017-07-26T03:32:01.247Z,1002.74
2017-07-26T03:32:41.780Z,1002.76
2017-07-26T03:33:22.324Z,1002.81
2017-07-26T03:34:02.869Z,1002.79
2017-07-26T03:34:43.398Z,1002.75
2017-07-26T03:35:23.922Z,1002.75
2017-07-26T03:36:04.455Z,1002.74
2017-07-26T03:36:44.986Z,1002.77
2017-07-26T03:37:25.524Z,1002.78
2017-07-26T03:38:06.068Z,1002.75
2017-07-26T03:38:46.585Z,1002.78
2017-07-26T03:39:27.105Z,1002.78
2017-07-26T03:40:07.655Z,1002.78
2017-07-26T03:40:48.188Z,1002.78
2017-07-26T03:41:28.725Z,1002.75
2017-07-26T03:42:09.272Z,1002.75
2017-07-26T03:42:49.808Z,1002.77
2017-07-26T03:43:30.351Z,1002.75
2017-07-26T03:44:10.891Z,1002.78
2017-07-26T03:44:51.410Z,1002.76
2017-07-26T03:45:31.943Z,1002.74
2017-07-26T03:46:12.481Z,1002.76
2017-07-26T03:46:53.024Z,1002.74
2017-07-26T03:47:33.561Z,1002.73
2017-07-26T03:48:14.073Z,1002.74
2017-07-26T03:48:54.613Z,1002.73
2017-07-26T03:49:35.139Z,1002.75
2017-07-26T03:50:15.675Z,1002.73
2017-07-26T03:50:56.351Z,1002.72
2017-07-26T03:51:36.876Z,1002.71
2017-07-26T03:52:17.402Z,1002.69
2017-07-26T03:52:57.976Z,1002.71
2017-07-26T03:53:38.511Z,1002.7
2017-07-26T03:54:19.030Z,1002.71
2017-07-26T03:54:59.581Z,1002.68
2017-07-26T03:55:40.105Z,1002.71
2017-07-26T03:56:20.650Z,1002.69
2017-07-26T03:57:01.182Z,1002.68
2017-07-26T03:57:41.718Z,1002.69
2017-07-26T03:58:22.248Z,1002.67
2017-07-26T03:59:02.761Z,1002.72
2017-07-26T03:59:43.294Z,1002.68
2017-07-26T04:00:23.823Z,1002.69
2017-07-26T04:01:04.374Z,1002.68
2017-07-26T04:01:44.885Z,1002.66
2017-07-26T04:02:25.411Z,1002.68
2017-07-26T04:03:05.943Z,1002.68
2017-07-26T04:03:46.453Z,1002.63
2017-07-26T04:04:26.974Z,1002.64
2017-07-26T04:05:07.512Z,1002.63
2017-07-26T04:05:48.063Z,1002.62
2017-07-26T04:06:28.594Z,1002.63
2017-07-26T04:07:09.120Z,1002.63
2017-07-26T04:07:49.653Z,1002.65
2017-07-26T04:08:30.161Z,1002.66
2017-07-26T04:09:10.714Z,1002.67
2017-07-26T04:09:51.258Z,1002.62
2017-07-26T04:10:31.797Z,1002.62
2017-07-26T04:11:12.342Z,1002.67
2017-07-26T04:11:52.885Z,1002.73
2017-07-26T04:12:33.423Z,1002.67
2017-07-26T04:13:13.941Z,1002.71
2017-07-26T04:13:54.470Z,1002.66
2017-07-26T04:14:34.998Z,1002.73
2017-07-26T04:15:15.541Z,1002.74
2017-07-26T04:15:56.075Z,1002.69
2017-07-26T04:16:36.591Z,1002.72
2017-07-26T04:17:17.138Z,1002.8
2017-07-26T04:17:57.670Z,1002.78
2017-07-26T04:18:38.202Z,1002.74
2017-07-26T04:19:18.744Z,1002.77
2017-07-26T04:19:59.279Z,1002.81
2017-07-26T04:20:39.795Z,1002.74
2017-07-26T04:21:20.339Z,1002.77
2017-07-26T04:22:00.870Z,1002.77
2017-07-26T04:22:41.420Z,1002.78
2017-07-26T04:23:21.955Z,1002.79
2017-07-26T04:24:02.486Z,1002.75
2017-07-26T04:24:43.008Z,1002.82
2017-07-26T04:25:23.546Z,1002.8
2017-07-26T04:26:04.081Z,1002.77
2017-07-26T04:26:44.620Z,1002.78
2017-07-26T04:27:25.161Z,1002.82
2017-07-26T04:28:05.682Z,1002.79
2017-07-26T04:28:46.195Z,1002.76
2017-07-26T04:29:26.720Z,1002.8
2017-07-26T04:30:07.254Z,1002.78
2017-07-26T04:30:47.787Z,1002.8
2017-07-26T04:31:28.310Z,1002.79
2017-07-26T04:32:08.852Z,1002.82
2017-07-26T04:32:49.383Z,1002.84
2017-07-26T04:33:29.907Z,1002.82
2017-07-26T04:34:10.417Z,1002.82
2017-07-26T04:34:50.930Z,1002.84
2017-07-26T04:35:31.470Z,1002.76
2017-07-26T04:36:12.004Z,1002.79
2017-07-26T04:36:52.553Z,1002.75
2017-07-26T04:37:33.067Z,1002.78
2017-07-26T04:38:13.631Z,1002.82
2017-07-26T04:38:54.164Z,1002.8
2017-07-26T04:39:34.672Z,1002.8
2017-07-26T04:40:15.197Z,1002.79
2017-07-26T04:40:55.724Z,1002.73
2017-07-26T04:41:36.253Z,1002.76
2017-07-26T04:42:16.802Z,1002.77
2017-07-26T04:42:57.328Z,1002.77
2017-07-26T04:43:37.873Z,1002.8
2017-07-26T04:44:18.405Z,1002.79
2017-07-26T04:44:58.931Z,1002.8
2017-07-26T04:45:39.448Z,1002.81
2017-07-26T04:46:19.976Z,1002.82
2017-07-26T04:47:00.496Z,1002.78
2017-07-26T04:47:41.026Z,1002.81
2017-07-26T04:48:21.563Z,1002.83
2017-07-26T04:49:02.067Z,1002.82
2017-07-26T04:49:42.605Z,1002.85
2017-07-26T04:50:23.125Z,1002.87
2017-07-26T04:51:03.671Z,1002.89
2017-07-26T04:51:44.217Z,1002.9
2017-07-26T04:52:24.767Z,1002.92
2017-07-26T04:53:05.273Z,1002.9
2017-07-26T04:53:45.815Z,1002.91
2017-07-26T04:54:26.329Z,1002.95
2017-07-26T04:55:06.862Z,1002.94
2017-07-26T04:55:47.390Z,1002.94
2017-07-26T04:56:27.922Z,1002.92
2017-07-26T04:57:08.445Z,1002.94
2017-07-26T04:57:48.961Z,1002.94
2017-07-26T04:58:29.490Z,1002.91
2017-07-26T04:59:10.027Z,1002.91
2017-07-26T04:59:50.524Z,1002.92
2017-07-26T05:00:31.063Z,1002.89
2017-07-26T05:01:11.574Z,1002.93
2017-07-26T05:01:52.116Z,1002.92
2017-07-26T05:02:32.651Z,1002.93
2017-07-26T05:03:13.150Z,1002.94
2017-07-26T05:03:53.685Z,1002.93
2017-07-26T05:04:34.222Z,1002.91
2017-07-26T05:05:14.743Z,1003
2017-07-26T05:05:55.275Z,1002.93
2017-07-26T05:06:35.801Z,1003
2017-07-26T05:07:16.344Z,1002.98
2017-07-26T05:07:56.884Z,1003.02
2017-07-26T05:08:37.388Z,1003
2017-07-26T05:09:17.939Z,1003.01
2017-07-26T05:09:58.457Z,1002.97
2017-07-26T05:10:38.979Z,1003
2017-07-26T05:11:19.522Z,1003.01
2017-07-26T05:12:00.041Z,1003
2017-07-26T05:12:40.555Z,1003.05
2017-07-26T05:13:21.097Z,1003.01
2017-07-26T05:14:01.635Z,1003.04
2017-07-26T05:14:42.158Z,1003.03
2017-07-26T05:15:22.686Z,1003.03
2017-07-26T05:16:03.228Z,1003.05
2017-07-26T05:16:43.757Z,1003.09
2017-07-26T05:17:24.300Z,1003.08
2017-07-26T05:18:04.836Z,1003.09
2017-07-26T05:18:45.346Z,1003.12
2017-07-26T05:19:25.872Z,1003.14
2017-07-26T05:20:06.406Z,1003.18
2017-07-26T05:20:46.927Z,1003.16
2017-07-26T05:21:27.469Z,1003.15
2017-07-26T05:22:07.989Z,1003.2
2017-07-26T05:22:48.515Z,1003.17
2017-07-26T05:23:29.055Z,1003.21
2017-07-26T05:24:09.603Z,1003.25
2017-07-26T05:24:50.143Z,1003.28
2017-07-26T05:25:30.695Z,1003.26
2017-07-26T05:26:11.217Z,1003.28
2017-07-26T05:26:51.729Z,1003.32
2017-07-26T05:27:32.255Z,1003.32
2017-07-26T05:28:12.797Z,1003.32
2017-07-26T05:28:53.331Z,1003.31
2017-07-26T05:29:33.837Z,1003.31
2017-07-26T05:30:14.391Z,1003.32
2017-07-26T05:30:54.897Z,1003.28
2017-07-26T05:31:35.435Z,1003.29
2017-07-26T05:32:15.980Z,1003.32
2017-07-26T05:32:56.499Z,1003.31
2017-07-26T05:33:37.024Z,1003.34
2017-07-26T05:34:17.543Z,1003.36
2017-07-26T05:34:58.146Z,1003.31
2017-07-26T05:35:38.664Z,1003.29
2017-07-26T05:36:19.194Z,1003.32
2017-07-26T05:36:59.721Z,1003.29
2017-07-26T05:37:40.263Z,1003.31
2017-07-26T05:38:20.776Z,1003.29
2017-07-26T05:39:01.321Z,1003.29
2017-07-26T05:39:41.868Z,1003.28
2017-07-26T05:40:22.393Z,1003.29
2017-07-26T05:41:02.936Z,1003.3
2017-07-26T05:41:43.454Z,1003.33
2017-07-26T05:42:24.013Z,1003.29
2017-07-26T05:43:04.517Z,1003.32
2017-07-26T05:43:45.067Z,1003.27
2017-07-26T05:44:25.567Z,1003.31
2017-07-26T05:45:06.096Z,1003.31
2017-07-26T05:45:46.661Z,1003.32
2017-07-26T05:46:27.194Z,1003.39
2017-07-26T05:47:07.721Z,1003.34
2017-07-26T05:47:48.249Z,1003.4
2017-07-26T05:48:28.783Z,1003.37
2017-07-26T05:49:09.295Z,1003.34
2017-07-26T05:49:49.823Z,1003.37
2017-07-26T05:50:30.350Z,1003.4
2017-07-26T05:51:10.876Z,1003.39
2017-07-26T05:51:51.389Z,1003.38
2017-07-26T05:52:31.915Z,1003.43
2017-07-26T05:53:12.451Z,1003.41
2017-07-26T05:53:52.983Z,1003.39
2017-07-26T05:54:33.516Z,1003.43
2017-07-26T05:55:14.055Z,1003.44
2017-07-26T05:55:54.597Z,1003.4
2017-07-26T05:56:35.129Z,1003.42
2017-07-26T05:57:15.664Z,1003.42
2017-07-26T05:57:56.192Z,1003.42
2017-07-26T05:58:36.710Z,1003.43
2017-07-26T05:59:17.241Z,1003.44
2017-07-26T05:59:57.865Z,1003.46
2017-07-26T06:00:38.415Z,1003.47
2017-07-26T06:01:18.959Z,1003.48
2017-07-26T06:01:59.510Z,1003.49
2017-07-26T06:02:40.037Z,1003.5
2017-07-26T06:03:20.573Z,1003.52
2017-07-26T06:04:01.096Z,1003.5
2017-07-26T06:04:41.625Z,1003.55
2017-07-26T06:05:22.157Z,1003.52
2017-07-26T06:06:02.685Z,1003.53
2017-07-26T06:06:43.206Z,1003.55
2017-07-26T06:07:23.737Z,1003.52
2017-07-26T06:08:04.278Z,1003.58
2017-07-26T06:08:44.813Z,1003.59
2017-07-26T06:09:25.352Z,1003.6
2017-07-26T06:10:05.882Z,1003.58
2017-07-26T06:10:46.421Z,1003.62
2017-07-26T06:11:26.966Z,1003.66
2017-07-26T06:12:07.492Z,1003.64
2017-07-26T06:12:48.048Z,1003.61
2017-07-26T06:13:28.642Z,1003.66
2017-07-26T06:14:09.174Z,1003.66
2017-07-26T06:14:49.705Z,1003.66
2017-07-26T06:15:30.246Z,1003.67
2017-07-26T06:16:10.783Z,1003.63
2017-07-26T06:16:51.324Z,1003.64
2017-07-26T06:17:31.871Z,1003.68
2017-07-26T06:18:12.952Z,1003.68
2017-07-26T06:18:53.704Z,1003.72
2017-07-26T06:19:34.276Z,1003.66
2017-07-26T06:20:15.009Z,1003.7
2017-07-26T06:20:55.774Z,1003.7
2017-07-26T06:21:36.511Z,1003.66
2017-07-26T06:22:17.264Z,1003.7
2017-07-26T06:22:57.918Z,1003.72
2017-07-26T06:23:38.461Z,1003.71
2017-07-26T06:24:19.090Z,1003.71
2017-07-26T06:24:59.620Z,1003.72
2017-07-26T06:25:40.327Z,1003.71
2017-07-26T06:26:21.116Z,1003.73
2017-07-26T06:27:01.928Z,1003.74
2017-07-26T06:27:42.539Z,1003.74
2017-07-26T06:28:23.192Z,1003.75
2017-07-26T06:29:03.850Z,1003.71
2017-07-26T06:29:44.796Z,1003.69
2017-07-26T06:30:25.545Z,1003.73
2017-07-26T06:31:06.438Z,1003.7
2017-07-26T06:31:46.988Z,1003.69
2017-07-26T06:32:27.538Z,1003.72
2017-07-26T06:33:08.173Z,1003.71
2017-07-26T06:33:48.706Z,1003.7
2017-07-26T06:34:29.253Z,1003.72
2017-07-26T06:35:09.776Z,1003.75
2017-07-26T06:35:50.306Z,1003.7
2017-07-26T06:36:31.155Z,1003.76
2017-07-26T06:37:12.786Z,1003.74
2017-07-26T06:37:55.110Z,1003.76
2017-07-26T06:38:37.675Z,1003.77
2017-07-26T06:39:18.381Z,1003.73
2017-07-26T06:39:58.946Z,1003.76
2017-07-26T06:40:40.854Z,1003.8
2017-07-26T06:41:22.736Z,1003.77
2017-07-26T06:42:06.797Z,1003.73
2017-07-26T06:42:47.496Z,1003.72
2017-07-26T06:43:28.225Z,1003.78
2017-07-26T06:44:08.934Z,1003.78
2017-07-26T06:44:49.469Z,1003.73
2017-07-26T06:45:30.064Z,1003.81
2017-07-26T06:46:11.966Z,1003.75
2017-07-26T06:46:55.411Z,1003.77
2017-07-26T06:49:11.823Z,1003.77
2017-07-26T06:49:52.641Z,1003.75
2017-07-26T06:50:33.199Z,1003.74
2017-07-26T06:51:13.921Z,1003.7
2017-07-26T06:51:54.597Z,1003.75
2017-07-26T06:52:35.264Z,1003.74
2017-07-26T06:53:15.867Z,1003.74
2017-07-26T06:53:56.596Z,1003.76
2017-07-26T06:54:37.204Z,1003.74
2017-07-26T06:55:17.861Z,1003.75
2017-07-26T06:55:59.400Z,1003.71
2017-07-26T06:56:40.051Z,1003.77
2017-07-26T06:57:20.636Z,1003.72
2017-07-26T06:58:01.234Z,1003.69
2017-07-26T06:58:41.738Z,1003.75
2017-07-26T06:59:22.327Z,1003.76
2017-07-26T07:00:03.206Z,1003.77
2017-07-26T07:00:43.723Z,1003.73
2017-07-26T07:01:25.152Z,1003.78
2017-07-26T07:02:06.258Z,1003.79
2017-07-26T07:02:46.807Z,1003.79
2017-07-26T07:03:27.398Z,1003.82
2017-07-26T07:04:07.932Z,1003.84
2017-07-26T07:04:48.522Z,1003.85
2017-07-26T07:05:29.054Z,1003.84
2017-07-26T07:06:09.605Z,1003.83
2017-07-26T07:06:50.146Z,1003.86
2017-07-26T07:07:30.680Z,1003.83
2017-07-26T07:08:11.198Z,1003.84
2017-07-26T07:08:51.743Z,1003.83
2017-07-26T07:09:32.280Z,1003.84
2017-07-26T07:10:12.823Z,1003.88
2017-07-26T07:10:53.361Z,1003.88
2017-07-26T07:11:33.902Z,1003.88
2017-07-26T07:12:14.442Z,1003.92
2017-07-26T07:12:55.023Z,1003.82
2017-07-26T07:13:35.557Z,1003.85
2017-07-26T07:14:16.104Z,1003.9
2017-07-26T07:14:56.639Z,1003.89
2017-07-26T07:15:37.168Z,1003.95
2017-07-26T07:16:17.719Z,1003.89
2017-07-26T07:16:58.248Z,1003.91
2017-07-26T07:17:38.786Z,1003.89
2017-07-26T07:18:19.341Z,1003.94
2017-07-26T07:18:59.883Z,1003.88
2017-07-26T07:19:40.416Z,1003.96
2017-07-26T07:20:20.961Z,1003.89
2017-07-26T07:21:01.509Z,1003.94
2017-07-26T07:21:42.049Z,1003.94
2017-07-26T07:22:22.580Z,1003.93
2017-07-26T07:23:03.111Z,1003.93
2017-07-26T07:23:43.622Z,1003.96
2017-07-26T07:24:24.163Z,1003.9
2017-07-26T07:25:04.677Z,1003.95
2017-07-26T07:25:45.212Z,1003.91
2017-07-26T07:26:25.745Z,1003.93
2017-07-26T07:27:06.278Z,1003.97
2017-07-26T07:27:46.822Z,1003.94
2017-07-26T07:28:27.340Z,1003.93
2017-07-26T07:29:07.871Z,1003.93
2017-07-26T07:29:48.385Z,1003.97
2017-07-26T07:30:28.916Z,1003.93
2017-07-26T07:31:09.457Z,1003.94
2017-07-26T07:31:49.987Z,1003.94
2017-07-26T07:32:30.513Z,1003.93
2017-07-26T07:33:11.052Z,1003.97
2017-07-26T07:33:51.589Z,1003.99
2017-07-26T07:34:32.128Z,1003.98
2017-07-26T07:35:12.676Z,1004
2017-07-26T07:35:53.189Z,1004.03
2017-07-26T07:36:33.722Z,1004.01
2017-07-26T07:37:14.253Z,1004.02
2017-07-26T07:37:54.795Z,1004.01
2017-07-26T07:38:35.335Z,1004.02
2017-07-26T07:39:15.871Z,1004.05
2017-07-26T07:39:56.391Z,1004.01
2017-07-26T07:40:36.930Z,1004.04
2017-07-26T07:41:17.504Z,1004.02
2017-07-26T07:41:58.044Z,1004.02
2017-07-26T07:42:38.569Z,1004.06
2017-07-26T07:43:19.106Z,1004.07
2017-07-26T07:43:59.647Z,1004.05
2017-07-26T07:44:40.188Z,1004.08
2017-07-26T07:45:20.719Z,1004.07
2017-07-26T07:46:01.249Z,1004.11
2017-07-26T07:46:41.829Z,1004.09
2017-07-26T07:47:22.357Z,1004.11
2017-07-26T07:48:02.873Z,1004.05
2017-07-26T07:48:43.427Z,1004.09
2017-07-26T07:49:23.958Z,1004.09
2017-07-26T07:50:04.916Z,1004.07
2017-07-26T07:50:46.116Z,1004.06
2017-07-26T07:51:26.844Z,1004.04
2017-07-26T07:52:07.591Z,1004
2017-07-26T07:52:48.131Z,1003.99
2017-07-26T07:53:29.134Z,1004.01
2017-07-26T07:54:09.767Z,1004.03
2017-07-26T07:54:50.458Z,1004.04
2017-07-26T07:55:31.299Z,1004.06
2017-07-26T07:56:11.826Z,1004.07
2017-07-26T07:56:52.370Z,1004.04
2017-07-26T07:57:33.162Z,1003.97
2017-07-26T07:58:13.995Z,1004.07
2017-07-26T07:58:54.681Z,1004.08
2017-07-26T07:59:35.228Z,1004.1
2017-07-26T08:00:15.767Z,1004.12
2017-07-26T08:00:56.442Z,1004.16
2017-07-26T08:01:37.615Z,1004.12
2017-07-26T08:02:18.274Z,1004.11
2017-07-26T08:02:59.211Z,1004.05
2017-07-26T08:03:40.331Z,1004.05
2017-07-26T08:04:21.374Z,1004.08
2017-07-26T08:05:02.328Z,1004.04
2017-07-26T08:05:42.989Z,1004.04
2017-07-26T08:06:23.853Z,1004.04
2017-07-26T08:07:04.915Z,1004.05
2017-07-26T08:07:45.566Z,1003.97
2017-07-26T08:08:26.106Z,1004.04
2017-07-26T08:09:06.782Z,1004.02
2017-07-26T08:09:47.501Z,1003.96
2017-07-26T08:10:28.035Z,1004.02
2017-07-26T08:11:08.574Z,1004.02
2017-07-26T08:11:49.596Z,1003.95
2017-07-26T08:12:30.292Z,1003.93
2017-07-26T08:13:10.806Z,1003.98
2017-07-26T08:13:51.621Z,1003.93
2017-07-26T08:14:32.586Z,1003.97